Terminal Aerodrome Forecast
Issued by NWS

Home | Current Version | Previous Version | Text Only | Print | Product List | Glossary On
Versions: 1 2 3 4 5 6 7 8 9 10 11 12 13 14 15 16 17 18 19 20 21 22 23
658
FTUS44 KEWX 061355 AAB
TAFSSF
TAF AMD
KSSF 061355Z 0614/0712 00000KT P6SM SKC
     FM061700 33011KT P6SM SKC
     FM070100 36008KT P6SM BKN015=

USA.gov is the U.S. government's official web portal to all federal, state and local government web resources and services.